createdAt,value
2017-07-19T00:00:23.503Z,4.90
2017-07-19T00:02:51.769Z,5.13
2017-07-19T00:05:19.235Z,4.67
2017-07-19T00:07:46.791Z,5.00
2017-07-19T00:10:14.237Z,4.37
2017-07-19T00:12:41.812Z,5.20
2017-07-19T00:15:10.041Z,5.10
2017-07-19T00:17:37.583Z,4.27
2017-07-19T00:20:05.094Z,5.00
2017-07-19T00:22:32.642Z,4.33
2017-07-19T00:25:00.094Z,5.07
2017-07-19T00:27:27.680Z,5.00
2017-07-19T00:29:55.892Z,4.50
2017-07-19T00:32:23.372Z,4.87
2017-07-19T00:34:50.818Z,4.57
2017-07-19T00:37:18.323Z,5.10
2017-07-19T00:39:46.578Z,5.17
2017-07-19T00:42:14.041Z,5.37
2017-07-19T00:44:41.502Z,4.40
2017-07-19T00:47:09.054Z,4.97
2017-07-19T00:49:36.627Z,4.90
2017-07-19T00:52:04.841Z,4.73
2017-07-19T00:54:32.333Z,4.83
2017-07-19T00:56:59.905Z,4.57
2017-07-19T00:59:27.378Z,4.00
2017-07-19T01:01:55.621Z,4.80
2017-07-19T01:04:23.087Z,4.40
2017-07-19T01:06:51.362Z,4.80
2017-07-19T01:09:18.959Z,5.33
2017-07-19T01:11:46.482Z,4.13
2017-07-19T01:14:14.037Z,5.00
2017-07-19T01:16:41.598Z,4.97
2017-07-19T01:19:09.154Z,4.80
2017-07-19T01:21:36.628Z,5.20
2017-07-19T01:24:04.090Z,5.17
2017-07-19T01:26:32.345Z,4.97
2017-07-19T01:28:59.912Z,5.23
2017-07-19T01:31:27.374Z,4.77
2017-07-19T01:33:54.828Z,5.10
2017-07-19T01:36:22.377Z,4.87
2017-07-19T01:38:49.943Z,5.13
2017-07-19T01:41:17.494Z,4.47
2017-07-19T01:43:45.051Z,4.60
2017-07-19T01:46:12.610Z,4.63
2017-07-19T01:48:40.076Z,4.90
2017-07-19T01:51:07.636Z,5.53
2017-07-19T01:53:35.870Z,5.30
2017-07-19T01:56:03.362Z,5.27
2017-07-19T01:58:30.934Z,4.87
2017-07-19T02:00:59.180Z,4.93
2017-07-19T02:03:26.750Z,4.83
2017-07-19T02:05:54.293Z,5.10
2017-07-19T02:08:21.757Z,5.63
2017-07-19T02:10:49.326Z,4.87
2017-07-19T02:13:16.796Z,5.20
2017-07-19T02:15:45.053Z,5.70
2017-07-19T02:18:12.536Z,5.80
2017-07-19T02:20:40.803Z,5.00
2017-07-19T02:23:08.355Z,5.57
2017-07-19T02:25:35.906Z,6.77
2017-07-19T02:28:03.360Z,4.23
2017-07-19T02:30:30.933Z,5.03
2017-07-19T02:32:58.483Z,5.17
2017-07-19T02:35:26.052Z,5.50
2017-07-19T02:37:53.614Z,5.10
2017-07-19T02:40:21.863Z,4.90
2017-07-19T02:42:49.435Z,5.07
2017-07-19T02:45:17.004Z,4.43
2017-07-19T02:47:45.271Z,5.03
2017-07-19T02:50:12.826Z,5.27
2017-07-19T02:52:40.295Z,4.90
2017-07-19T02:55:08.523Z,5.07
2017-07-19T02:57:36.009Z,5.77
2017-07-19T03:00:03.560Z,5.10
2017-07-19T03:02:31.015Z,5.33
2017-07-19T03:04:58.484Z,5.20
2017-07-19T03:07:25.950Z,4.80
2017-07-19T03:09:53.424Z,5.70
2017-07-19T03:12:21.650Z,5.60
2017-07-19T03:14:49.116Z,5.70
2017-07-19T03:17:16.685Z,5.30
2017-07-19T03:19:44.138Z,5.30
2017-07-19T03:22:11.607Z,5.30
2017-07-19T03:24:39.061Z,5.43
2017-07-19T03:27:06.539Z,4.83
2017-07-19T03:29:34.762Z,6.20
2017-07-19T03:32:02.225Z,6.60
2017-07-19T03:34:29.823Z,5.23
2017-07-19T03:36:58.069Z,5.50
2017-07-19T03:39:25.534Z,5.10
2017-07-19T03:41:52.994Z,5.93
2017-07-19T03:44:20.465Z,5.33
2017-07-19T03:46:48.687Z,5.73
2017-07-19T03:49:16.167Z,5.83
2017-07-19T03:51:43.633Z,5.87
2017-07-19T03:54:11.107Z,5.03
2017-07-19T03:56:39.343Z,5.90
2017-07-19T03:59:06.947Z,5.93
2017-07-19T04:01:35.179Z,5.60
2017-07-19T04:04:02.663Z,5.93
2017-07-19T04:06:30.226Z,5.27
2017-07-19T04:08:57.701Z,6.07
2017-07-19T04:11:25.951Z,6.20
2017-07-19T04:13:53.515Z,5.70
2017-07-19T04:16:21.078Z,5.73
2017-07-19T04:18:48.553Z,5.90
2017-07-19T04:21:16.022Z,5.97
2017-07-19T04:23:43.538Z,5.63
2017-07-19T04:26:11.007Z,5.90
2017-07-19T04:28:39.244Z,5.80
2017-07-19T04:31:06.735Z,6.20
2017-07-19T04:33:34.285Z,6.50
2017-07-19T04:36:01.750Z,6.07
2017-07-19T04:38:29.199Z,6.43
2017-07-19T04:40:56.753Z,5.90
2017-07-19T04:43:24.324Z,6.47
2017-07-19T04:45:51.792Z,6.77
2017-07-19T04:48:20.018Z,6.20
2017-07-19T04:50:47.481Z,8.80
2017-07-19T04:53:14.962Z,6.33
2017-07-19T04:55:42.426Z,7.10
2017-07-19T04:58:09.895Z,6.57
2017-07-19T05:00:38.147Z,6.40
2017-07-19T05:03:05.715Z,7.93
2017-07-19T05:05:33.276Z,7.27
2017-07-19T05:08:00.830Z,6.77
2017-07-19T05:10:28.385Z,6.97
2017-07-19T05:12:56.844Z,5.50
2017-07-19T05:15:24.297Z,6.30
2017-07-19T05:17:51.779Z,6.10
2017-07-19T05:20:19.239Z,7.67
2017-07-19T05:22:46.800Z,6.43
2017-07-19T05:25:14.279Z,7.00
2017-07-19T05:27:41.820Z,5.93
2017-07-19T05:30:10.046Z,6.27
2017-07-19T05:32:37.518Z,6.00
2017-07-19T05:35:04.978Z,7.63
2017-07-19T05:37:32.428Z,8.70
2017-07-19T05:39:59.893Z,6.27
2017-07-19T05:42:27.363Z,5.90
2017-07-19T05:44:54.918Z,6.47
2017-07-19T05:47:22.390Z,6.17
2017-07-19T05:49:50.667Z,6.10
2017-07-19T05:52:18.943Z,6.27
2017-07-19T05:54:47.178Z,6.60
2017-07-19T05:57:14.633Z,6.20
2017-07-19T05:59:42.129Z,5.37
2017-07-19T06:02:10.405Z,6.47
2017-07-19T06:04:38.666Z,5.63
2017-07-19T06:07:06.220Z,5.10
2017-07-19T06:09:33.785Z,6.30
2017-07-19T06:12:01.241Z,5.93
2017-07-19T06:14:28.807Z,5.97
2017-07-19T06:16:56.266Z,6.70
2017-07-19T06:19:23.773Z,5.70
2017-07-19T06:21:51.263Z,5.80
2017-07-19T06:24:18.723Z,6.80
2017-07-19T06:26:46.286Z,5.73
2017-07-19T06:29:14.979Z,5.40
2017-07-19T06:31:42.536Z,6.00
2017-07-19T06:34:10.832Z,5.90
2017-07-19T06:36:39.112Z,5.10
2017-07-19T06:39:08.575Z,5.60
2017-07-19T06:41:36.038Z,5.57
2017-07-19T06:44:03.588Z,5.57
2017-07-19T06:46:31.058Z,5.60
2017-07-19T06:48:58.618Z,5.47
2017-07-19T06:51:26.183Z,5.00
2017-07-19T06:53:53.645Z,5.40
2017-07-19T06:56:21.910Z,4.43
2017-07-19T06:58:49.485Z,4.70
2017-07-19T07:01:17.742Z,5.53
2017-07-19T07:03:45.288Z,5.00
2017-07-19T07:06:12.754Z,4.73
2017-07-19T07:08:40.235Z,5.67
2017-07-19T07:11:08.491Z,5.17
2017-07-19T07:13:36.732Z,4.67
2017-07-19T07:16:04.191Z,4.90
2017-07-19T07:18:31.671Z,4.90
2017-07-19T07:20:59.259Z,4.60
2017-07-19T07:23:27.528Z,5.50
2017-07-19T07:25:55.751Z,4.70
2017-07-19T07:28:23.237Z,5.27
2017-07-19T07:30:50.805Z,5.17
2017-07-19T07:33:18.371Z,4.93
2017-07-19T07:35:46.643Z,4.40
2017-07-19T07:38:14.202Z,4.40
2017-07-19T07:40:41.677Z,4.80
2017-07-19T07:43:09.920Z,5.93
2017-07-19T07:45:37.475Z,5.00
2017-07-19T07:48:04.942Z,4.77
2017-07-19T07:50:32.401Z,5.40
2017-07-19T07:52:59.865Z,5.23
2017-07-19T07:55:27.325Z,5.20
2017-07-19T07:57:55.550Z,3.80
2017-07-19T08:00:23.042Z,4.70
2017-07-19T08:02:50.607Z,5.70
2017-07-19T08:05:18.159Z,5.10
2017-07-19T08:07:45.716Z,4.20
2017-07-19T08:10:13.203Z,4.80
2017-07-19T08:12:41.471Z,4.20
2017-07-19T08:15:09.723Z,5.33
2017-07-19T08:17:37.311Z,4.40
2017-07-19T08:20:05.558Z,4.40
2017-07-19T08:22:33.160Z,4.80
2017-07-19T08:25:00.719Z,4.60
2017-07-19T08:27:28.233Z,4.77
2017-07-19T08:29:55.803Z,4.40
2017-07-19T08:32:23.358Z,5.10
2017-07-19T08:34:50.844Z,4.10
2017-07-19T08:37:18.365Z,4.27
2017-07-19T08:39:45.812Z,4.53
2017-07-19T08:42:13.376Z,5.23
2017-07-19T08:44:40.897Z,4.47
2017-07-19T08:47:08.455Z,4.50
2017-07-19T08:49:35.952Z,3.93
2017-07-19T08:52:03.426Z,4.43
2017-07-19T08:54:30.886Z,4.33
2017-07-19T08:56:59.140Z,4.80
2017-07-19T08:59:26.602Z,4.03
2017-07-19T09:01:54.162Z,4.17
2017-07-19T09:04:21.717Z,4.30
2017-07-19T09:06:49.289Z,4.87
2017-07-19T09:09:16.747Z,3.60
2017-07-19T09:11:44.308Z,5.77
2017-07-19T09:14:12.543Z,5.00
2017-07-19T09:16:40.030Z,3.63
2017-07-19T09:19:07.597Z,7.00
2017-07-19T09:21:35.842Z,7.17
2017-07-19T09:24:03.317Z,6.60
2017-07-19T09:26:30.870Z,4.30
2017-07-19T09:28:58.326Z,4.90
2017-07-19T09:31:25.785Z,4.20
2017-07-19T09:33:53.251Z,4.07
2017-07-19T09:36:20.716Z,5.53
2017-07-19T09:38:48.978Z,5.90
2017-07-19T09:41:16.447Z,3.87
2017-07-19T09:43:44.704Z,4.00
2017-07-19T09:46:12.275Z,4.60
2017-07-19T09:48:39.832Z,6.50
2017-07-19T09:51:07.392Z,5.03
2017-07-19T09:53:34.952Z,4.07
2017-07-19T09:56:03.227Z,3.57
2017-07-19T09:58:30.786Z,3.80
2017-07-19T10:00:58.335Z,4.90
2017-07-19T10:03:25.904Z,4.17
2017-07-19T10:05:54.149Z,6.23
2017-07-19T10:08:21.623Z,5.57
2017-07-19T10:10:49.077Z,4.23
2017-07-19T10:13:16.548Z,4.73
2017-07-19T10:15:44.818Z,3.67
2017-07-19T10:18:12.370Z,4.10
2017-07-19T10:20:39.934Z,3.63
2017-07-19T10:23:07.483Z,3.60
2017-07-19T10:25:35.093Z,3.60
2017-07-19T10:28:02.565Z,4.10
2017-07-19T10:30:30.009Z,3.80
2017-07-19T10:32:57.488Z,4.70
2017-07-19T10:35:24.995Z,4.17
2017-07-19T10:37:53.223Z,4.20
2017-07-19T10:40:20.699Z,3.90
2017-07-19T10:42:48.166Z,3.70
2017-07-19T10:45:15.737Z,4.70
2017-07-19T10:47:43.958Z,4.10
2017-07-19T10:50:11.458Z,4.07
2017-07-19T10:52:39.023Z,4.00
2017-07-19T10:55:06.580Z,3.93
2017-07-19T10:57:34.147Z,4.00
2017-07-19T11:00:02.410Z,4.23
2017-07-19T11:02:29.970Z,4.40
2017-07-19T11:04:57.532Z,4.80
2017-07-19T11:07:24.999Z,3.93
2017-07-19T11:09:52.537Z,4.33
2017-07-19T11:12:19.997Z,4.47
2017-07-19T11:14:47.558Z,4.40
2017-07-19T11:17:15.114Z,4.50
2017-07-19T11:19:42.679Z,5.40
2017-07-19T11:22:10.128Z,4.00
2017-07-19T11:24:37.675Z,4.20
2017-07-19T11:27:05.128Z,4.37
2017-07-19T11:29:32.598Z,4.30
2017-07-19T11:32:00.053Z,4.80
2017-07-19T11:34:27.520Z,5.10
2017-07-19T11:36:54.977Z,4.70
2017-07-19T11:39:22.499Z,5.20
2017-07-19T11:41:49.991Z,4.50
2017-07-19T11:44:17.537Z,5.10
2017-07-19T11:46:45.004Z,4.63
2017-07-19T11:49:12.470Z,4.10
2017-07-19T11:51:40.714Z,4.70
2017-07-19T11:54:08.297Z,4.70
2017-07-19T11:56:35.856Z,4.70
2017-07-19T11:59:04.102Z,5.37
2017-07-19T12:01:31.582Z,4.97
2017-07-19T12:03:59.858Z,4.70
2017-07-19T12:06:27.424Z,4.90
2017-07-19T12:08:54.932Z,4.47
2017-07-19T12:11:22.415Z,4.50
2017-07-19T12:13:49.979Z,5.37
2017-07-19T12:16:17.542Z,4.53
2017-07-19T12:18:45.001Z,4.53
2017-07-19T12:21:12.566Z,5.03
2017-07-19T12:23:40.117Z,5.20
2017-07-19T12:26:07.574Z,4.67
2017-07-19T12:28:35.129Z,4.80
2017-07-19T12:31:02.618Z,4.90
2017-07-19T12:33:30.855Z,4.70
2017-07-19T12:35:58.340Z,4.90
2017-07-19T12:38:25.896Z,4.60
2017-07-19T12:40:54.148Z,6.37
2017-07-19T12:43:21.615Z,5.70
2017-07-19T12:45:49.078Z,6.20
2017-07-19T12:48:16.645Z,4.90
2017-07-19T12:50:44.912Z,4.37
2017-07-19T12:53:12.364Z,5.90
2017-07-19T12:55:40.640Z,5.40
2017-07-19T12:58:08.103Z,4.90
2017-07-19T13:00:35.649Z,4.60
2017-07-19T13:03:03.220Z,4.80
2017-07-19T13:05:30.765Z,5.20
2017-07-19T13:07:58.325Z,4.97
2017-07-19T13:10:25.785Z,5.73
2017-07-19T13:12:53.318Z,5.23
2017-07-19T13:15:20.805Z,4.90
2017-07-19T13:17:49.074Z,5.60
2017-07-19T13:20:16.530Z,4.60
2017-07-19T13:22:43.998Z,5.50
2017-07-19T13:25:11.450Z,5.20
2017-07-19T13:27:39.736Z,4.97
2017-07-19T13:30:07.993Z,4.70
2017-07-19T13:32:35.471Z,4.67
2017-07-19T13:35:03.711Z,4.50
2017-07-19T13:37:31.229Z,5.07
2017-07-19T13:39:58.751Z,5.30
2017-07-19T13:42:26.236Z,4.63
2017-07-19T13:44:53.711Z,4.53
2017-07-19T13:47:21.220Z,5.80
2017-07-19T13:49:48.769Z,4.80
2017-07-19T13:52:16.326Z,4.97
2017-07-19T13:54:43.896Z,4.80
2017-07-19T13:57:11.455Z,5.40
2017-07-19T13:59:39.689Z,5.33
2017-07-19T14:02:07.191Z,4.73
2017-07-19T14:04:34.742Z,4.97
2017-07-19T14:07:02.198Z,4.20
2017-07-19T14:09:29.675Z,4.43
2017-07-19T14:11:57.126Z,4.43
2017-07-19T14:14:24.657Z,4.77
2017-07-19T14:16:52.118Z,4.77
2017-07-19T14:19:19.584Z,5.20
2017-07-19T14:21:47.076Z,4.40
2017-07-19T14:24:14.524Z,4.83
2017-07-19T14:26:42.050Z,4.50
2017-07-19T14:29:09.501Z,4.43
2017-07-19T14:31:37.071Z,5.33
2017-07-19T14:34:04.522Z,4.27
2017-07-19T14:36:32.087Z,5.50
2017-07-19T14:38:59.649Z,5.30
2017-07-19T14:41:27.924Z,4.60
2017-07-19T14:43:55.478Z,5.03
2017-07-19T14:46:22.962Z,4.83
2017-07-19T14:48:50.465Z,5.20
2017-07-19T14:51:17.940Z,4.57
2017-07-19T14:53:45.395Z,4.57
2017-07-19T14:56:12.859Z,4.77
2017-07-19T14:58:40.409Z,4.40
2017-07-19T15:01:07.913Z,4.30
2017-07-19T15:03:35.385Z,4.27
2017-07-19T15:06:02.932Z,4.80
2017-07-19T15:08:30.395Z,4.10
2017-07-19T15:10:57.844Z,4.80
2017-07-19T15:13:25.311Z,4.90
2017-07-19T15:15:52.814Z,4.40
2017-07-19T15:18:20.374Z,4.10
2017-07-19T15:20:47.828Z,4.43
2017-07-19T15:23:15.386Z,4.80
2017-07-19T15:25:42.939Z,4.07
2017-07-19T15:28:10.495Z,4.60
2017-07-19T15:30:38.072Z,5.17
2017-07-19T15:33:05.626Z,4.83
2017-07-19T15:35:33.099Z,4.63
2017-07-19T15:38:01.498Z,4.90
2017-07-19T15:40:28.967Z,5.53
2017-07-19T15:42:56.478Z,4.20
2017-07-19T15:45:24.042Z,5.13
2017-07-19T15:47:51.558Z,4.80
2017-07-19T15:50:19.051Z,4.67
2017-07-19T15:52:46.605Z,4.50
2017-07-19T15:55:14.066Z,5.07
2017-07-19T15:57:41.633Z,5.07
2017-07-19T16:00:09.098Z,4.47
2017-07-19T16:02:37.331Z,4.70
2017-07-19T16:05:04.822Z,5.13
2017-07-19T16:07:32.365Z,4.90
2017-07-19T16:09:59.821Z,5.53
2017-07-19T16:12:27.381Z,4.60
2017-07-19T16:14:54.851Z,4.70
2017-07-19T16:17:22.328Z,4.77
2017-07-19T16:19:50.602Z,4.67
2017-07-19T16:22:18.860Z,4.30
2017-07-19T16:24:46.405Z,4.73
2017-07-19T16:27:13.969Z,5.00
2017-07-19T16:29:41.521Z,4.60
2017-07-19T16:32:09.081Z,4.53
2017-07-19T16:34:36.638Z,4.97
2017-07-19T16:37:04.202Z,4.20
2017-07-19T16:39:31.753Z,4.73
2017-07-19T16:41:59.323Z,5.30
2017-07-19T16:44:26.874Z,5.37
2017-07-19T16:46:54.448Z,5.20
2017-07-19T16:49:21.918Z,5.10
2017-07-19T16:51:49.459Z,4.77
2017-07-19T16:54:17.695Z,5.57
2017-07-19T16:56:45.168Z,6.40
2017-07-19T16:59:12.633Z,6.43
2017-07-19T17:01:40.193Z,5.57
2017-07-19T17:04:07.671Z,6.07
2017-07-19T17:06:35.903Z,4.77
2017-07-19T17:09:03.379Z,6.00
2017-07-19T17:11:30.843Z,5.47
2017-07-19T17:13:58.311Z,5.00
2017-07-19T17:16:26.573Z,5.80
2017-07-19T17:18:54.139Z,4.60
2017-07-19T17:21:21.748Z,5.40
2017-07-19T17:23:49.214Z,5.37
2017-07-19T17:26:16.679Z,4.77
2017-07-19T17:28:44.180Z,5.97
2017-07-19T17:31:12.406Z,5.60
2017-07-19T17:33:39.898Z,5.63
2017-07-19T17:36:07.369Z,4.90
2017-07-19T17:38:35.641Z,5.20
2017-07-19T17:41:03.907Z,4.83
2017-07-19T17:43:31.380Z,4.80
2017-07-19T17:45:59.606Z,5.60
2017-07-19T17:48:27.100Z,5.50
2017-07-19T17:50:54.654Z,6.30
2017-07-19T17:53:22.215Z,5.57
2017-07-19T17:55:49.678Z,5.10
2017-07-19T17:58:17.906Z,5.77
2017-07-19T18:00:45.361Z,5.17
2017-07-19T18:03:12.872Z,5.20
2017-07-19T18:05:40.406Z,5.63
2017-07-19T18:08:07.874Z,5.80
2017-07-19T18:10:35.421Z,5.83
2017-07-19T18:13:02.991Z,5.10
2017-07-19T18:15:30.449Z,5.90
2017-07-19T18:17:58.682Z,4.90
2017-07-19T18:20:26.164Z,5.63
2017-07-19T18:22:53.856Z,5.10
2017-07-19T18:25:22.106Z,5.20
2017-07-19T18:27:49.661Z,5.13
2017-07-19T18:30:17.236Z,5.13
2017-07-19T18:32:45.531Z,5.83
2017-07-19T18:35:13.775Z,6.80
2017-07-19T18:37:41.325Z,6.07
2017-07-19T18:40:08.903Z,6.00
2017-07-19T18:42:36.361Z,5.70
2017-07-19T18:45:04.605Z,5.40
2017-07-19T18:47:32.092Z,5.37
2017-07-19T18:50:00.353Z,5.87
2017-07-19T18:52:27.928Z,6.13
2017-07-19T18:54:56.162Z,6.53
2017-07-19T18:57:23.655Z,6.47
2017-07-19T18:59:51.118Z,6.07
2017-07-19T19:02:19.332Z,5.90
2017-07-19T19:04:46.892Z,5.50
2017-07-19T19:07:14.337Z,7.00
2017-07-19T19:09:41.854Z,6.10
2017-07-19T19:12:09.425Z,6.07
2017-07-19T19:14:37.696Z,6.40
2017-07-19T19:17:05.967Z,5.80
2017-07-19T19:19:33.442Z,6.10
2017-07-19T19:22:01.694Z,6.57
2017-07-19T19:24:29.240Z,5.60
2017-07-19T19:26:56.809Z,6.90
2017-07-19T19:29:24.288Z,5.83
2017-07-19T19:31:52.547Z,5.53
2017-07-19T19:34:20.088Z,6.00
2017-07-19T19:36:47.667Z,6.10
2017-07-19T19:39:15.204Z,5.80
2017-07-19T19:41:42.673Z,5.43
2017-07-19T19:44:10.334Z,6.20
2017-07-19T19:46:37.894Z,5.57
2017-07-19T19:49:05.466Z,6.80
2017-07-19T19:51:33.693Z,6.57
2017-07-19T19:54:01.162Z,6.10
2017-07-19T19:56:28.637Z,6.40
2017-07-19T19:58:56.218Z,7.07
2017-07-19T20:01:24.478Z,6.87
2017-07-19T20:03:51.952Z,6.30
2017-07-19T20:06:20.196Z,9.20
2017-07-19T20:08:47.656Z,6.83
2017-07-19T20:11:15.224Z,7.87
2017-07-19T20:13:42.791Z,7.23
2017-07-19T20:16:11.063Z,6.60
2017-07-19T20:18:38.627Z,6.67
2017-07-19T20:21:06.107Z,7.13
2017-07-19T20:23:33.629Z,6.83
2017-07-19T20:26:01.175Z,6.57
2017-07-19T20:28:28.755Z,6.70
2017-07-19T20:30:56.214Z,7.10
2017-07-19T20:33:24.487Z,6.43
2017-07-19T20:35:52.033Z,5.90
2017-07-19T20:38:19.604Z,6.90
2017-07-19T20:40:47.159Z,6.73
2017-07-19T20:43:14.823Z,5.93
2017-07-19T20:45:42.378Z,6.60
2017-07-19T20:48:09.847Z,6.67
2017-07-19T20:50:38.102Z,6.53
2017-07-19T20:53:05.666Z,6.40
2017-07-19T20:55:33.148Z,6.70
2017-07-19T20:58:01.388Z,7.23
2017-07-19T21:00:28.849Z,6.33
2017-07-19T21:02:56.305Z,6.70
2017-07-19T21:05:23.879Z,7.10
2017-07-19T21:07:51.320Z,5.80
2017-07-19T21:10:18.792Z,6.27
2017-07-19T21:12:46.245Z,6.53
2017-07-19T21:15:13.803Z,6.93
2017-07-19T21:17:41.360Z,5.83
2017-07-19T21:20:08.920Z,6.73
2017-07-19T21:22:37.172Z,7.00
2017-07-19T21:25:04.640Z,7.10
2017-07-19T21:27:32.097Z,6.97
2017-07-19T21:29:59.556Z,7.00
2017-07-19T21:32:27.008Z,6.23
2017-07-19T21:34:54.578Z,7.10
2017-07-19T21:37:22.131Z,7.57
2017-07-19T21:39:49.584Z,8.10
2017-07-19T21:42:17.064Z,6.50
2017-07-19T21:44:45.321Z,6.47
2017-07-19T21:47:12.791Z,6.60
2017-07-19T21:49:41.048Z,6.73
2017-07-19T21:52:08.614Z,6.20
2017-07-19T21:54:36.087Z,7.00
2017-07-19T21:57:04.340Z,7.63
2017-07-19T21:59:31.902Z,6.80
2017-07-19T22:01:59.357Z,6.53
2017-07-19T22:04:26.923Z,6.93
2017-07-19T22:06:54.483Z,7.40
2017-07-19T22:09:21.952Z,6.87
2017-07-19T22:11:50.211Z,6.60
2017-07-19T22:14:17.670Z,7.30
2017-07-19T22:16:45.222Z,6.77
2017-07-19T22:19:12.788Z,6.03
2017-07-19T22:21:40.338Z,7.57
2017-07-19T22:24:07.810Z,7.87
2017-07-19T22:26:36.043Z,7.10
2017-07-19T22:29:03.536Z,6.90
2017-07-19T22:31:31.090Z,7.50
2017-07-19T22:33:58.559Z,7.57
2017-07-19T22:36:26.817Z,7.60
2017-07-19T22:38:54.264Z,7.77
2017-07-19T22:41:21.741Z,7.87
2017-07-19T22:43:50.022Z,8.33
2017-07-19T22:46:18.296Z,7.90
2017-07-19T22:48:46.531Z,8.47
2017-07-19T22:51:14.012Z,9.20
2017-07-19T22:53:41.574Z,8.10
2017-07-19T22:56:09.105Z,8.33
2017-07-19T22:58:36.622Z,9.60
2017-07-19T23:01:04.150Z,10.43
2017-07-19T23:03:31.706Z,8.13
2017-07-19T23:05:59.266Z,8.87
2017-07-19T23:08:26.731Z,8.67
2017-07-19T23:10:54.965Z,9.70
2017-07-19T23:13:22.463Z,9.57
2017-07-19T23:15:50.716Z,10.50
2017-07-19T23:18:18.336Z,9.63
2017-07-19T23:20:45.841Z,8.00
2017-07-19T23:23:13.426Z,10.00
2017-07-19T23:25:41.687Z,10.63
2017-07-19T23:28:09.969Z,9.27
2017-07-19T23:30:38.234Z,9.50
2017-07-19T23:33:05.734Z,10.80
2017-07-19T23:35:33.214Z,9.00
2017-07-19T23:38:00.691Z,10.23
2017-07-19T23:40:28.171Z,10.30
2017-07-19T23:42:56.413Z,10.07
2017-07-19T23:45:23.888Z,9.60
2017-07-19T23:47:51.461Z,9.90
2017-07-19T23:50:19.727Z,10.50
2017-07-19T23:52:47.307Z,10.90
2017-07-19T23:55:15.558Z,10.10
2017-07-19T23:57:43.121Z,10.10
